sensor_id;sensor_type;location;lat;lon;timestamp;temperature;humidity
13992;DHT22;7070;53.586;9.692;2022-12-29T00:00:04;9.10;91.20
13992;DHT22;7070;53.586;9.692;2022-12-29T00:02:31;9.10;91.20
13992;DHT22;7070;53.586;9.692;2022-12-29T00:04:58;9.20;91.20
13992;DHT22;7070;53.586;9.692;2022-12-29T00:07:25;9.20;91.20
13992;DHT22;7070;53.586;9.692;2022-12-29T00:09:51;9.20;91.20
13992;DHT22;7070;53.586;9.692;2022-12-29T00:12:18;9.30;91.30
13992;DHT22;7070;53.586;9.692;2022-12-29T00:14:46;9.30;91.20
13992;DHT22;7070;53.586;9.692;2022-12-29T00:17:31;9.30;91.10
13992;DHT22;7070;53.586;9.692;2022-12-29T00:19:57;9.40;91.20
13992;DHT22;7070;53.586;9.692;2022-12-29T00:22:42;9.30;91.10
13992;DHT22;7070;53.586;9.692;2022-12-29T00:25:26;9.40;91.20
13992;DHT22;7070;53.586;9.692;2022-12-29T00:28:10;9.40;91.20
13992;DHT22;7070;53.586;9.692;2022-12-29T00:30:59;9.50;91.20
13992;DHT22;7070;53.586;9.692;2022-12-29T00:33:43;9.50;91.20
13992;DHT22;7070;53.586;9.692;2022-12-29T00:36:31;9.50;91.20
13992;DHT22;7070;53.586;9.692;2022-12-29T00:39:01;9.50;91.20
13992;DHT22;7070;53.586;9.692;2022-12-29T00:41:47;9.60;91.30
13992;DHT22;7070;53.586;9.692;2022-12-29T00:44:32;9.60;91.30
13992;DHT22;7070;53.586;9.692;2022-12-29T00:47:00;9.60;91.30
13992;DHT22;7070;53.586;9.692;2022-12-29T00:49:29;9.60;91.20
13992;DHT22;7070;53.586;9.692;2022-12-29T00:51:57;9.60;91.20
13992;DHT22;7070;53.586;9.692;2022-12-29T00:54:24;9.70;91.30
13992;DHT22;7070;53.586;9.692;2022-12-29T00:56:52;9.70;91.20
13992;DHT22;7070;53.586;9.692;2022-12-29T00:59:19;9.70;91.10
13992;DHT22;7070;53.586;9.692;2022-12-29T01:01:47;9.70;91.10
13992;DHT22;7070;53.586;9.692;2022-12-29T01:04:15;9.70;91.00
13992;DHT22;7070;53.586;9.692;2022-12-29T01:06:42;9.70;91.00
13992;DHT22;7070;53.586;9.692;2022-12-29T01:09:09;9.70;91.10
13992;DHT22;7070;53.586;9.692;2022-12-29T01:11:54;9.70;91.10
13992;DHT22;7070;53.586;9.692;2022-12-29T01:14:22;9.70;91.10
13992;DHT22;7070;53.586;9.692;2022-12-29T01:16:49;9.70;91.10
13992;DHT22;7070;53.586;9.692;2022-12-29T01:19:18;9.80;91.20
13992;DHT22;7070;53.586;9.692;2022-12-29T01:21:46;9.80;91.20
13992;DHT22;7070;53.586;9.692;2022-12-29T01:24:14;9.80;91.20
13992;DHT22;7070;53.586;9.692;2022-12-29T01:26:41;9.90;91.30
13992;DHT22;7070;53.586;9.692;2022-12-29T01:29:08;9.90;91.20
13992;DHT22;7070;53.586;9.692;2022-12-29T01:31:35;9.90;91.30
13992;DHT22;7070;53.586;9.692;2022-12-29T01:34:02;9.90;91.20
13992;DHT22;7070;53.586;9.692;2022-12-29T01:36:30;10.00;90.80
13992;DHT22;7070;53.586;9.692;2022-12-29T01:38:57;9.90;91.20
13992;DHT22;7070;53.586;9.692;2022-12-29T01:41:24;10.00;90.70
13992;DHT22;7070;53.586;9.692;2022-12-29T01:43:53;10.00;90.70
13992;DHT22;7070;53.586;9.692;2022-12-29T01:46:24;10.00;90.70
13992;DHT22;7070;53.586;9.692;2022-12-29T01:48:53;10.00;91.10
13992;DHT22;7070;53.586;9.692;2022-12-29T01:51:23;10.00;90.70
13992;DHT22;7070;53.586;9.692;2022-12-29T01:53:53;10.10;90.80
13992;DHT22;7070;53.586;9.692;2022-12-29T01:56:21;10.10;90.70
13992;DHT22;7070;53.586;9.692;2022-12-29T01:58:52;10.10;91.10
13992;DHT22;7070;53.586;9.692;2022-12-29T02:01:21;10.10;90.70
13992;DHT22;7070;53.586;9.692;2022-12-29T02:03:48;10.10;90.70
13992;DHT22;7070;53.586;9.692;2022-12-29T02:06:20;10.10;90.70
13992;DHT22;7070;53.586;9.692;2022-12-29T02:08:50;10.10;90.70
13992;DHT22;7070;53.586;9.692;2022-12-29T02:11:18;10.20;90.70
13992;DHT22;7070;53.586;9.692;2022-12-29T02:13:46;10.30;90.70
13992;DHT22;7070;53.586;9.692;2022-12-29T02:16:21;10.20;91.00
13992;DHT22;7070;53.586;9.692;2022-12-29T02:19:01;10.20;90.70
13992;DHT22;7070;53.586;9.692;2022-12-29T02:21:48;10.20;90.70
13992;DHT22;7070;53.586;9.692;2022-12-29T02:27:36;10.20;90.60
13992;DHT22;7070;53.586;9.692;2022-12-29T02:30:15;10.20;90.70
13992;DHT22;7070;53.586;9.692;2022-12-29T02:32:51;10.20;90.70
13992;DHT22;7070;53.586;9.692;2022-12-29T02:35:25;10.20;90.70
13992;DHT22;7070;53.586;9.692;2022-12-29T02:38:03;10.20;90.70
13992;DHT22;7070;53.586;9.692;2022-12-29T02:40:39;10.20;90.70
13992;DHT22;7070;53.586;9.692;2022-12-29T02:43:14;10.30;90.80
13992;DHT22;7070;53.586;9.692;2022-12-29T02:45:48;10.30;90.80
13992;DHT22;7070;53.586;9.692;2022-12-29T02:48:21;10.30;90.70
13992;DHT22;7070;53.586;9.692;2022-12-29T02:50:53;10.30;90.70
13992;DHT22;7070;53.586;9.692;2022-12-29T02:53:24;10.30;90.70
13992;DHT22;7070;53.586;9.692;2022-12-29T02:56:05;10.30;90.70
13992;DHT22;7070;53.586;9.692;2022-12-29T02:58:32;10.30;90.70
13992;DHT22;7070;53.586;9.692;2022-12-29T03:01:12;10.30;90.70
13992;DHT22;7070;53.586;9.692;2022-12-29T03:03:48;10.30;90.70
13992;DHT22;7070;53.586;9.692;2022-12-29T03:06:30;10.30;90.70
13992;DHT22;7070;53.586;9.692;2022-12-29T03:09:05;10.30;90.70
13992;DHT22;7070;53.586;9.692;2022-12-29T03:11:44;10.30;91.00
13992;DHT22;7070;53.586;9.692;2022-12-29T03:14:39;10.40;90.70
13992;DHT22;7070;53.586;9.692;2022-12-29T03:17:34;10.30;90.80
13992;DHT22;7070;53.586;9.692;2022-12-29T03:20:06;10.30;90.70
13992;DHT22;7070;53.586;9.692;2022-12-29T03:22:41;10.30;90.70
13992;DHT22;7070;53.586;9.692;2022-12-29T03:25:11;10.40;90.70
13992;DHT22;7070;53.586;9.692;2022-12-29T03:27:44;10.40;90.70
13992;DHT22;7070;53.586;9.692;2022-12-29T03:30:12;10.40;90.70
13992;DHT22;7070;53.586;9.692;2022-12-29T03:32:42;10.40;90.70
13992;DHT22;7070;53.586;9.692;2022-12-29T03:35:15;10.40;90.70
13992;DHT22;7070;53.586;9.692;2022-12-29T03:37:52;10.40;90.70
13992;DHT22;7070;53.586;9.692;2022-12-29T03:40:23;10.50;90.70
13992;DHT22;7070;53.586;9.692;2022-12-29T03:42:50;10.40;90.70
13992;DHT22;7070;53.586;9.692;2022-12-29T03:45:19;10.50;90.70
13992;DHT22;7070;53.586;9.692;2022-12-29T03:47:46;10.50;90.70
13992;DHT22;7070;53.586;9.692;2022-12-29T03:50:14;10.50;90.70
13992;DHT22;7070;53.586;9.692;2022-12-29T03:52:41;10.50;90.70
13992;DHT22;7070;53.586;9.692;2022-12-29T03:55:09;10.50;90.60
13992;DHT22;7070;53.586;9.692;2022-12-29T03:57:35;10.50;90.60
13992;DHT22;7070;53.586;9.692;2022-12-29T04:00:04;10.60;90.70
13992;DHT22;7070;53.586;9.692;2022-12-29T04:02:31;10.60;90.60
13992;DHT22;7070;53.586;9.692;2022-12-29T04:04:58;10.50;90.60
13992;DHT22;7070;53.586;9.692;2022-12-29T04:07:26;10.50;90.50
13992;DHT22;7070;53.586;9.692;2022-12-29T04:09:53;10.60;90.50
13992;DHT22;7070;53.586;9.692;2022-12-29T04:12:19;10.60;90.50
13992;DHT22;7070;53.586;9.692;2022-12-29T04:14:46;10.50;90.40
13992;DHT22;7070;53.586;9.692;2022-12-29T04:17:13;10.50;90.30
13992;DHT22;7070;53.586;9.692;2022-12-29T04:19:40;10.50;90.40
13992;DHT22;7070;53.586;9.692;2022-12-29T04:22:07;10.50;90.40
13992;DHT22;7070;53.586;9.692;2022-12-29T04:24:35;10.40;90.30
13992;DHT22;7070;53.586;9.692;2022-12-29T04:27:02;10.40;90.40
13992;DHT22;7070;53.586;9.692;2022-12-29T04:29:29;10.40;90.50
13992;DHT22;7070;53.586;9.692;2022-12-29T04:31:56;10.40;90.50
13992;DHT22;7070;53.586;9.692;2022-12-29T04:34:22;10.50;90.60
13992;DHT22;7070;53.586;9.692;2022-12-29T04:36:50;10.50;90.70
13992;DHT22;7070;53.586;9.692;2022-12-29T04:39:17;10.50;90.70
13992;DHT22;7070;53.586;9.692;2022-12-29T04:41:45;10.60;90.70
13992;DHT22;7070;53.586;9.692;2022-12-29T04:44:12;10.60;90.70
13992;DHT22;7070;53.586;9.692;2022-12-29T04:46:38;10.70;90.70
13992;DHT22;7070;53.586;9.692;2022-12-29T04:49:05;10.70;90.70
13992;DHT22;7070;53.586;9.692;2022-12-29T04:51:34;10.70;90.70
13992;DHT22;7070;53.586;9.692;2022-12-29T04:54:01;10.70;90.60
13992;DHT22;7070;53.586;9.692;2022-12-29T04:56:27;10.80;90.70
13992;DHT22;7070;53.586;9.692;2022-12-29T04:58:56;10.80;90.60
13992;DHT22;7070;53.586;9.692;2022-12-29T05:01:22;10.80;90.60
13992;DHT22;7070;53.586;9.692;2022-12-29T05:03:50;10.90;90.60
13992;DHT22;7070;53.586;9.692;2022-12-29T05:06:17;10.90;90.60
13992;DHT22;7070;53.586;9.692;2022-12-29T05:08:44;10.80;90.60
13992;DHT22;7070;53.586;9.692;2022-12-29T05:11:11;10.90;90.60
13992;DHT22;7070;53.586;9.692;2022-12-29T05:13:38;10.90;90.60
13992;DHT22;7070;53.586;9.692;2022-12-29T05:16:06;10.90;90.60
13992;DHT22;7070;53.586;9.692;2022-12-29T05:18:33;10.90;90.70
13992;DHT22;7070;53.586;9.692;2022-12-29T05:21:00;10.90;90.70
13992;DHT22;7070;53.586;9.692;2022-12-29T05:23:27;10.90;90.70
13992;DHT22;7070;53.586;9.692;2022-12-29T05:25:53;11.00;90.70
13992;DHT22;7070;53.586;9.692;2022-12-29T05:28:20;11.00;90.70
13992;DHT22;7070;53.586;9.692;2022-12-29T05:30:48;11.00;90.70
13992;DHT22;7070;53.586;9.692;2022-12-29T05:33:16;10.90;90.60
13992;DHT22;7070;53.586;9.692;2022-12-29T05:35:43;11.00;90.70
13992;DHT22;7070;53.586;9.692;2022-12-29T05:38:10;11.00;90.70
13992;DHT22;7070;53.586;9.692;2022-12-29T05:40:37;11.00;90.70
13992;DHT22;7070;53.586;9.692;2022-12-29T05:43:04;11.00;90.70
13992;DHT22;7070;53.586;9.692;2022-12-29T05:45:31;11.00;90.70
13992;DHT22;7070;53.586;9.692;2022-12-29T05:47:58;11.00;90.70
13992;DHT22;7070;53.586;9.692;2022-12-29T05:50:26;11.00;90.70
13992;DHT22;7070;53.586;9.692;2022-12-29T05:52:53;11.00;90.60
13992;DHT22;7070;53.586;9.692;2022-12-29T05:55:20;11.00;90.60
13992;DHT22;7070;53.586;9.692;2022-12-29T05:57:47;11.00;90.60
13992;DHT22;7070;53.586;9.692;2022-12-29T06:00:14;11.00;90.60
13992;DHT22;7070;53.586;9.692;2022-12-29T06:02:41;10.90;90.40
13992;DHT22;7070;53.586;9.692;2022-12-29T06:05:09;10.90;90.40
13992;DHT22;7070;53.586;9.692;2022-12-29T06:07:37;10.80;90.70
13992;DHT22;7070;53.586;9.692;2022-12-29T06:10:05;10.80;90.40
13992;DHT22;7070;53.586;9.692;2022-12-29T06:12:32;10.80;90.50
13992;DHT22;7070;53.586;9.692;2022-12-29T06:14:58;10.80;90.60
13992;DHT22;7070;53.586;9.692;2022-12-29T06:17:25;10.80;90.70
13992;DHT22;7070;53.586;9.692;2022-12-29T06:19:52;10.80;90.70
13992;DHT22;7070;53.586;9.692;2022-12-29T06:22:19;10.80;90.70
13992;DHT22;7070;53.586;9.692;2022-12-29T06:24:47;10.80;90.70
13992;DHT22;7070;53.586;9.692;2022-12-29T06:27:14;10.90;90.70
13992;DHT22;7070;53.586;9.692;2022-12-29T06:29:41;10.80;90.60
13992;DHT22;7070;53.586;9.692;2022-12-29T06:32:09;10.90;90.60
13992;DHT22;7070;53.586;9.692;2022-12-29T06:34:36;10.90;90.60
13992;DHT22;7070;53.586;9.692;2022-12-29T06:37:03;10.90;90.50
13992;DHT22;7070;53.586;9.692;2022-12-29T06:39:30;10.90;90.50
13992;DHT22;7070;53.586;9.692;2022-12-29T06:41:58;10.90;90.60
13992;DHT22;7070;53.586;9.692;2022-12-29T06:44:25;10.90;90.60
13992;DHT22;7070;53.586;9.692;2022-12-29T06:46:52;10.90;90.60
13992;DHT22;7070;53.586;9.692;2022-12-29T06:49:19;10.80;90.50
13992;DHT22;7070;53.586;9.692;2022-12-29T06:51:46;10.90;90.50
13992;DHT22;7070;53.586;9.692;2022-12-29T06:54:13;10.90;90.40
13992;DHT22;7070;53.586;9.692;2022-12-29T06:56:40;10.90;90.30
13992;DHT22;7070;53.586;9.692;2022-12-29T06:59:09;10.80;90.10
13992;DHT22;7070;53.586;9.692;2022-12-29T07:01:36;10.70;90.30
13992;DHT22;7070;53.586;9.692;2022-12-29T07:04:03;10.70;89.80
13992;DHT22;7070;53.586;9.692;2022-12-29T07:06:30;10.60;89.80
13992;DHT22;7070;53.586;9.692;2022-12-29T07:08:57;10.50;89.80
13992;DHT22;7070;53.586;9.692;2022-12-29T07:11:24;10.40;89.80
13992;DHT22;7070;53.586;9.692;2022-12-29T07:13:51;10.30;90.30
13992;DHT22;7070;53.586;9.692;2022-12-29T07:16:19;10.20;89.80
13992;DHT22;7070;53.586;9.692;2022-12-29T07:18:46;10.20;89.90
13992;DHT22;7070;53.586;9.692;2022-12-29T07:21:13;10.10;90.00
13992;DHT22;7070;53.586;9.692;2022-12-29T07:23:40;10.10;90.00
13992;DHT22;7070;53.586;9.692;2022-12-29T07:26:08;10.00;90.10
13992;DHT22;7070;53.586;9.692;2022-12-29T07:28:37;10.00;90.20
13992;DHT22;7070;53.586;9.692;2022-12-29T07:31:05;10.00;90.30
13992;DHT22;7070;53.586;9.692;2022-12-29T07:33:33;10.00;90.30
13992;DHT22;7070;53.586;9.692;2022-12-29T07:36:00;10.00;90.40
13992;DHT22;7070;53.586;9.692;2022-12-29T07:38:27;10.00;90.40
13992;DHT22;7070;53.586;9.692;2022-12-29T07:40:57;9.90;90.80
13992;DHT22;7070;53.586;9.692;2022-12-29T07:43:24;10.00;90.70
13992;DHT22;7070;53.586;9.692;2022-12-29T07:45:51;10.00;90.40
13992;DHT22;7070;53.586;9.692;2022-12-29T07:48:18;10.00;90.70
13992;DHT22;7070;53.586;9.692;2022-12-29T07:50:47;10.00;90.30
13992;DHT22;7070;53.586;9.692;2022-12-29T07:53:14;10.00;90.30
13992;DHT22;7070;53.586;9.692;2022-12-29T07:55:41;10.00;90.30
13992;DHT22;7070;53.586;9.692;2022-12-29T07:58:08;10.00;90.40
13992;DHT22;7070;53.586;9.692;2022-12-29T08:00:35;10.00;90.30
13992;DHT22;7070;53.586;9.692;2022-12-29T08:03:03;10.00;90.40
13992;DHT22;7070;53.586;9.692;2022-12-29T08:05:30;10.00;90.40
13992;DHT22;7070;53.586;9.692;2022-12-29T08:07:59;10.00;90.30
13992;DHT22;7070;53.586;9.692;2022-12-29T08:10:26;10.00;90.30
13992;DHT22;7070;53.586;9.692;2022-12-29T08:12:52;10.00;90.20
13992;DHT22;7070;53.586;9.692;2022-12-29T08:15:19;10.00;90.30
13992;DHT22;7070;53.586;9.692;2022-12-29T08:17:46;9.90;90.70
13992;DHT22;7070;53.586;9.692;2022-12-29T08:20:13;10.00;90.20
13992;DHT22;7070;53.586;9.692;2022-12-29T08:22:40;9.90;90.70
13992;DHT22;7070;53.586;9.692;2022-12-29T08:25:09;10.00;90.30
13992;DHT22;7070;53.586;9.692;2022-12-29T08:27:36;9.90;90.80
13992;DHT22;7070;53.586;9.692;2022-12-29T08:30:03;9.90;90.90
13992;DHT22;7070;53.586;9.692;2022-12-29T08:32:30;10.00;90.50
13992;DHT22;7070;53.586;9.692;2022-12-29T08:34:57;10.00;90.60
13992;DHT22;7070;53.586;9.692;2022-12-29T08:37:24;10.10;91.00
13992;DHT22;7070;53.586;9.692;2022-12-29T08:39:51;10.10;90.70
13992;DHT22;7070;53.586;9.692;2022-12-29T08:42:19;10.10;90.70
13992;DHT22;7070;53.586;9.692;2022-12-29T08:44:46;10.20;90.70
13992;DHT22;7070;53.586;9.692;2022-12-29T08:47:12;10.30;90.80
13992;DHT22;7070;53.586;9.692;2022-12-29T08:49:39;10.40;90.70
13992;DHT22;7070;53.586;9.692;2022-12-29T08:52:07;10.40;90.70
13992;DHT22;7070;53.586;9.692;2022-12-29T08:54:34;10.50;90.70
13992;DHT22;7070;53.586;9.692;2022-12-29T08:57:01;10.60;90.80
13992;DHT22;7070;53.586;9.692;2022-12-29T08:59:29;10.60;90.70
13992;DHT22;7070;53.586;9.692;2022-12-29T09:01:56;10.70;90.70
13992;DHT22;7070;53.586;9.692;2022-12-29T09:04:23;10.70;90.70
13992;DHT22;7070;53.586;9.692;2022-12-29T09:06:50;10.80;90.60
13992;DHT22;7070;53.586;9.692;2022-12-29T09:09:17;10.90;90.60
13992;DHT22;7070;53.586;9.692;2022-12-29T09:11:44;10.80;90.70
13992;DHT22;7070;53.586;9.692;2022-12-29T09:14:11;10.80;90.70
13992;DHT22;7070;53.586;9.692;2022-12-29T09:16:40;10.90;90.30
13992;DHT22;7070;53.586;9.692;2022-12-29T09:19:24;10.90;90.20
13992;DHT22;7070;53.586;9.692;2022-12-29T09:21:51;10.80;90.10
13992;DHT22;7070;53.586;9.692;2022-12-29T09:24:18;10.80;90.20
13992;DHT22;7070;53.586;9.692;2022-12-29T09:26:44;10.90;90.40
13992;DHT22;7070;53.586;9.692;2022-12-29T09:29:11;10.90;90.40
13992;DHT22;7070;53.586;9.692;2022-12-29T09:31:39;11.00;90.50
13992;DHT22;7070;53.586;9.692;2022-12-29T09:34:06;11.10;90.50
13992;DHT22;7070;53.586;9.692;2022-12-29T09:36:33;11.20;90.50
13992;DHT22;7070;53.586;9.692;2022-12-29T09:39:00;11.30;90.50
13992;DHT22;7070;53.586;9.692;2022-12-29T09:41:31;11.30;90.50
13992;DHT22;7070;53.586;9.692;2022-12-29T09:44:06;11.40;90.40
13992;DHT22;7070;53.586;9.692;2022-12-29T09:46:37;11.50;90.60
13992;DHT22;7070;53.586;9.692;2022-12-29T09:49:17;11.50;90.20
13992;DHT22;7070;53.586;9.692;2022-12-29T09:51:48;11.60;90.20
13992;DHT22;7070;53.586;9.692;2022-12-29T09:54:48;11.60;90.50
13992;DHT22;7070;53.586;9.692;2022-12-29T09:57:21;11.70;90.10
13992;DHT22;7070;53.586;9.692;2022-12-29T09:59:52;11.70;90.00
13992;DHT22;7070;53.586;9.692;2022-12-29T10:02:29;11.70;89.90
13992;DHT22;7070;53.586;9.692;2022-12-29T10:04:59;11.80;89.80
13992;DHT22;7070;53.586;9.692;2022-12-29T10:07:33;11.70;89.60
13992;DHT22;7070;53.586;9.692;2022-12-29T10:10:16;11.80;89.60
13992;DHT22;7070;53.586;9.692;2022-12-29T10:12:56;11.80;89.40
13992;DHT22;7070;53.586;9.692;2022-12-29T10:15:35;11.80;89.10
13992;DHT22;7070;53.586;9.692;2022-12-29T10:18:18;11.80;88.80
13992;DHT22;7070;53.586;9.692;2022-12-29T10:20:52;11.80;88.60
13992;DHT22;7070;53.586;9.692;2022-12-29T10:23:26;11.70;88.50
13992;DHT22;7070;53.586;9.692;2022-12-29T10:25:55;11.80;88.60
13992;DHT22;7070;53.586;9.692;2022-12-29T10:28:24;11.80;88.40
13992;DHT22;7070;53.586;9.692;2022-12-29T10:30:56;11.70;88.30
13992;DHT22;7070;53.586;9.692;2022-12-29T10:33:31;11.80;88.40
13992;DHT22;7070;53.586;9.692;2022-12-29T10:36:04;11.80;88.20
13992;DHT22;7070;53.586;9.692;2022-12-29T10:38:39;11.80;88.00
13992;DHT22;7070;53.586;9.692;2022-12-29T10:41:13;11.90;87.90
13992;DHT22;7070;53.586;9.692;2022-12-29T10:43:45;11.80;87.70
13992;DHT22;7070;53.586;9.692;2022-12-29T10:46:15;11.80;87.70
13992;DHT22;7070;53.586;9.692;2022-12-29T10:48:42;11.80;87.50
13992;DHT22;7070;53.586;9.692;2022-12-29T10:51:21;11.80;88.30
13992;DHT22;7070;53.586;9.692;2022-12-29T10:53:51;11.80;87.50
13992;DHT22;7070;53.586;9.692;2022-12-29T10:56:27;11.90;87.40
13992;DHT22;7070;53.586;9.692;2022-12-29T10:58:56;12.00;87.30
13992;DHT22;7070;53.586;9.692;2022-12-29T11:01:27;11.90;86.90
13992;DHT22;7070;53.586;9.692;2022-12-29T11:04:03;12.00;86.60
13992;DHT22;7070;53.586;9.692;2022-12-29T11:06:31;11.90;86.50
13992;DHT22;7070;53.586;9.692;2022-12-29T11:09:07;11.90;86.50
13992;DHT22;7070;53.586;9.692;2022-12-29T11:11:37;12.00;86.60
13992;DHT22;7070;53.586;9.692;2022-12-29T11:14:11;11.90;86.40
13992;DHT22;7070;53.586;9.692;2022-12-29T11:16:39;11.90;85.90
13992;DHT22;7070;53.586;9.692;2022-12-29T11:19:20;11.80;85.70
13992;DHT22;7070;53.586;9.692;2022-12-29T11:21:49;11.80;85.80
13992;DHT22;7070;53.586;9.692;2022-12-29T11:24:20;11.70;85.70
13992;DHT22;7070;53.586;9.692;2022-12-29T11:26:49;11.70;85.90
13992;DHT22;7070;53.586;9.692;2022-12-29T11:29:23;11.70;86.10
13992;DHT22;7070;53.586;9.692;2022-12-29T11:31:52;11.70;86.40
13992;DHT22;7070;53.586;9.692;2022-12-29T11:34:22;11.80;87.30
13992;DHT22;7070;53.586;9.692;2022-12-29T11:36:54;11.90;86.60
13992;DHT22;7070;53.586;9.692;2022-12-29T11:39:37;12.00;86.40
13992;DHT22;7070;53.586;9.692;2022-12-29T11:42:11;12.00;86.10
13992;DHT22;7070;53.586;9.692;2022-12-29T11:44:44;12.00;86.00
13992;DHT22;7070;53.586;9.692;2022-12-29T11:47:22;12.10;86.20
13992;DHT22;7070;53.586;9.692;2022-12-29T11:49:51;12.10;86.90
13992;DHT22;7070;53.586;9.692;2022-12-29T11:52:23;12.20;86.00
13992;DHT22;7070;53.586;9.692;2022-12-29T11:54:52;12.20;85.80
13992;DHT22;7070;53.586;9.692;2022-12-29T11:57:21;12.30;85.30
13992;DHT22;7070;53.586;9.692;2022-12-29T11:59:50;12.30;84.80
13992;DHT22;7070;53.586;9.692;2022-12-29T12:02:42;12.20;84.60
13992;DHT22;7070;53.586;9.692;2022-12-29T12:05:22;12.10;84.80
13992;DHT22;7070;53.586;9.692;2022-12-29T12:07:57;12.10;85.00
13992;DHT22;7070;53.586;9.692;2022-12-29T12:10:29;12.10;84.90
13992;DHT22;7070;53.586;9.692;2022-12-29T12:13:03;12.10;85.00
13992;DHT22;7070;53.586;9.692;2022-12-29T12:15:36;12.10;85.00
13992;DHT22;7070;53.586;9.692;2022-12-29T12:18:10;12.10;85.00
13992;DHT22;7070;53.586;9.692;2022-12-29T12:20:46;12.00;85.00
13992;DHT22;7070;53.586;9.692;2022-12-29T12:23:28;12.10;85.10
13992;DHT22;7070;53.586;9.692;2022-12-29T12:26:02;12.10;85.00
13992;DHT22;7070;53.586;9.692;2022-12-29T12:28:37;12.00;84.90
13992;DHT22;7070;53.586;9.692;2022-12-29T12:31:16;12.00;85.00
13992;DHT22;7070;53.586;9.692;2022-12-29T12:33:47;12.00;85.00
13992;DHT22;7070;53.586;9.692;2022-12-29T12:36:33;11.90;85.00
13992;DHT22;7070;53.586;9.692;2022-12-29T12:39:10;12.00;85.10
13992;DHT22;7070;53.586;9.692;2022-12-29T12:41:44;11.90;85.80
13992;DHT22;7070;53.586;9.692;2022-12-29T12:44:20;11.90;85.10
13992;DHT22;7070;53.586;9.692;2022-12-29T12:50:03;11.90;85.20
13992;DHT22;7070;53.586;9.692;2022-12-29T12:52:50;12.00;85.30
13992;DHT22;7070;53.586;9.692;2022-12-29T12:55:44;11.90;85.30
13992;DHT22;7070;53.586;9.692;2022-12-29T12:58:18;12.00;85.20
13992;DHT22;7070;53.586;9.692;2022-12-29T13:00:53;12.00;85.20
13992;DHT22;7070;53.586;9.692;2022-12-29T13:03:30;12.00;85.10
13992;DHT22;7070;53.586;9.692;2022-12-29T13:06:14;12.00;85.20
13992;DHT22;7070;53.586;9.692;2022-12-29T13:09:19;12.00;85.20
13992;DHT22;7070;53.586;9.692;2022-12-29T13:12:01;12.00;85.10
13992;DHT22;7070;53.586;9.692;2022-12-29T13:14:39;12.00;84.90
13992;DHT22;7070;53.586;9.692;2022-12-29T13:17:15;12.00;84.80
13992;DHT22;7070;53.586;9.692;2022-12-29T13:19:50;11.90;84.70
13992;DHT22;7070;53.586;9.692;2022-12-29T13:22:27;11.90;84.70
13992;DHT22;7070;53.586;9.692;2022-12-29T13:25:16;11.90;84.70
13992;DHT22;7070;53.586;9.692;2022-12-29T13:27:51;11.80;84.70
13992;DHT22;7070;53.586;9.692;2022-12-29T13:30:22;11.80;84.70
13992;DHT22;7070;53.586;9.692;2022-12-29T13:32:56;11.70;84.50
13992;DHT22;7070;53.586;9.692;2022-12-29T13:35:33;11.70;85.50
13992;DHT22;7070;53.586;9.692;2022-12-29T13:38:12;11.60;84.80
13992;DHT22;7070;53.586;9.692;2022-12-29T13:40:44;11.50;84.80
13992;DHT22;7070;53.586;9.692;2022-12-29T13:43:14;11.40;84.80
13992;DHT22;7070;53.586;9.692;2022-12-29T13:45:43;11.40;84.70
13992;DHT22;7070;53.586;9.692;2022-12-29T13:48:15;11.30;84.50
13992;DHT22;7070;53.586;9.692;2022-12-29T13:50:48;11.10;83.90
13992;DHT22;7070;53.586;9.692;2022-12-29T13:53:22;10.80;83.70
13992;DHT22;7070;53.586;9.692;2022-12-29T13:55:53;10.50;83.80
13992;DHT22;7070;53.586;9.692;2022-12-29T13:58:27;10.30;84.10
13992;DHT22;7070;53.586;9.692;2022-12-29T14:01:02;10.00;84.30
13992;DHT22;7070;53.586;9.692;2022-12-29T14:03:46;9.80;85.70
13992;DHT22;7070;53.586;9.692;2022-12-29T14:06:19;9.50;86.00
13992;DHT22;7070;53.586;9.692;2022-12-29T14:08:47;9.40;86.40
13992;DHT22;7070;53.586;9.692;2022-12-29T14:11:15;9.20;86.70
13992;DHT22;7070;53.586;9.692;2022-12-29T14:13:46;9.20;87.00
13992;DHT22;7070;53.586;9.692;2022-12-29T14:16:25;9.10;87.30
13992;DHT22;7070;53.586;9.692;2022-12-29T14:18:52;8.90;87.50
13992;DHT22;7070;53.586;9.692;2022-12-29T14:21:24;9.00;87.80
13992;DHT22;7070;53.586;9.692;2022-12-29T14:26:42;8.90;88.30
13992;DHT22;7070;53.586;9.692;2022-12-29T14:29:43;8.80;88.40
13992;DHT22;7070;53.586;9.692;2022-12-29T14:32:35;8.80;88.60
13992;DHT22;7070;53.586;9.692;2022-12-29T14:35:37;8.80;88.60
13992;DHT22;7070;53.586;9.692;2022-12-29T14:38:22;8.70;88.40
13992;DHT22;7070;53.586;9.692;2022-12-29T14:40:50;8.70;88.10
13992;DHT22;7070;53.586;9.692;2022-12-29T14:43:22;8.60;88.10
13992;DHT22;7070;53.586;9.692;2022-12-29T14:46:00;8.50;87.80
13992;DHT22;7070;53.586;9.692;2022-12-29T14:48:38;8.40;87.80
13992;DHT22;7070;53.586;9.692;2022-12-29T14:51:20;8.30;87.80
13992;DHT22;7070;53.586;9.692;2022-12-29T14:53:48;8.20;87.90
13992;DHT22;7070;53.586;9.692;2022-12-29T14:56:17;8.10;88.00
13992;DHT22;7070;53.586;9.692;2022-12-29T14:58:51;8.00;88.00
13992;DHT22;7070;53.586;9.692;2022-12-29T15:01:30;7.90;88.00
13992;DHT22;7070;53.586;9.692;2022-12-29T15:04:05;7.90;88.40
13992;DHT22;7070;53.586;9.692;2022-12-29T15:06:36;7.80;88.40
13992;DHT22;7070;53.586;9.692;2022-12-29T15:09:15;7.80;89.00
13992;DHT22;7070;53.586;9.692;2022-12-29T15:11:48;7.80;89.40
13992;DHT22;7070;53.586;9.692;2022-12-29T15:14:32;7.80;90.00
13992;DHT22;7070;53.586;9.692;2022-12-29T15:17:08;7.70;89.70
13992;DHT22;7070;53.586;9.692;2022-12-29T15:19:36;7.80;90.00
13992;DHT22;7070;53.586;9.692;2022-12-29T15:22:03;7.90;90.10
13992;DHT22;7070;53.586;9.692;2022-12-29T15:24:30;7.90;90.10
13992;DHT22;7070;53.586;9.692;2022-12-29T15:26:57;8.00;90.20
13992;DHT22;7070;53.586;9.692;2022-12-29T15:29:36;8.00;90.40
13992;DHT22;7070;53.586;9.692;2022-12-29T15:32:20;8.00;90.10
13992;DHT22;7070;53.586;9.692;2022-12-29T15:34:49;8.00;89.90
13992;DHT22;7070;53.586;9.692;2022-12-29T15:37:18;8.00;90.00
13992;DHT22;7070;53.586;9.692;2022-12-29T15:39:46;8.00;90.20
13992;DHT22;7070;53.586;9.692;2022-12-29T15:45:10;8.00;90.30
13992;DHT22;7070;53.586;9.692;2022-12-29T15:47:40;8.00;90.20
13992;DHT22;7070;53.586;9.692;2022-12-29T15:50:13;8.10;90.10
13992;DHT22;7070;53.586;9.692;2022-12-29T15:52:41;8.00;89.80
13992;DHT22;7070;53.586;9.692;2022-12-29T15:55:19;7.90;89.50
13992;DHT22;7070;53.586;9.692;2022-12-29T15:57:46;7.90;89.30
13992;DHT22;7070;53.586;9.692;2022-12-29T16:00:24;7.80;89.10
13992;DHT22;7070;53.586;9.692;2022-12-29T16:02:54;7.70;89.00
13992;DHT22;7070;53.586;9.692;2022-12-29T16:05:21;7.60;88.90
13992;DHT22;7070;53.586;9.692;2022-12-29T16:07:53;7.50;89.00
13992;DHT22;7070;53.586;9.692;2022-12-29T16:10:31;7.40;88.90
13992;DHT22;7070;53.586;9.692;2022-12-29T16:13:12;7.30;88.90
13992;DHT22;7070;53.586;9.692;2022-12-29T16:15:39;7.20;89.00
13992;DHT22;7070;53.586;9.692;2022-12-29T16:18:21;7.10;89.00
13992;DHT22;7070;53.586;9.692;2022-12-29T16:20:50;7.00;89.00
13992;DHT22;7070;53.586;9.692;2022-12-29T16:23:22;7.00;89.10
13992;DHT22;7070;53.586;9.692;2022-12-29T16:25:50;6.90;89.20
13992;DHT22;7070;53.586;9.692;2022-12-29T16:28:21;6.90;89.40